Ballard, Washington
Current Conditions -  °F | °C
As of 9:53 AM on Thursday 30 Oct 2014 (Local Time) from KBFI Reporting Station
Light Rain Light Rain  
Wind Chill: 59°   Ceiling: 9500
Heat Index: 59°   Visibility: 7mi
Dew Point: 53°   Wind: 0mph
Humidity: 81%   Direction: NA
Pressure: 29.87"   Gusts: NA
Location:  47.6705°N, 122.381°W
Report Text: KBFI 301653Z 00000KT 7SM -RA FEW030 SCT060 OVC095 15/12 A2987 RMK AO2 RAB00 SLP113 P0004 T01500117
Loading
Personal Weather Stations






























Interactive Weather Map
Tropical Storm Tracking
New forecast layout! Learn more

10-Day Weather Forecast

Advertisements
Track Severe Weather on mobile